Time;durP1;ratioP1;P1;durP2;ratioP2;P2;SDS_P1;SDS_P2;PMS_P1;PMS_P2;Temp;Humidity;BMP_temperature;BMP_pressure;BME280_temperature;BME280_humidity;BME280_pressure;Samples;Min_cycle;Max_cycle;Signal;HPM_P1;HPM_P2
2023/11/05 00:01:42;;;;;;;;;;;;;;;19.98;44.15;92693.09;10468652;28;2581;-58
2023/11/05 00:06:42;;;;;;;;;;;;;;;19.94;44.30;92684.38;10468068;28;5110;-59
2023/11/05 00:11:43;;;;;;;;;;;;;;;19.91;44.14;92679.78;10465464;28;3053;-59
2023/11/05 00:16:43;;;;;;;;;;;;;;;19.87;44.15;92668.44;10470916;28;2632;-59
2023/11/05 00:21:44;;;;;;;;;;;;;;;19.85;44.20;92652.25;10474124;28;2608;-59
2023/11/05 00:26:44;;;;;;;;;;;;;;;19.84;44.26;92648.09;10474494;28;2621;-59
2023/11/05 00:31:45;;;;;;;;;;;;;;;19.81;44.11;92646.16;10476252;28;2718;-60
2023/11/05 00:36:45;;;;;;;;;;;;;;;19.77;44.32;92634.81;10480104;28;2628;-59
2023/11/05 00:41:45;;;;;;;;;;;;;;;19.77;44.46;92624.28;10460009;28;2688;-59
2023/11/05 00:46:46;;;;;;;;;;;;;;;19.74;44.31;92632.88;10477475;28;2766;-59
2023/11/05 00:51:46;;;;;;;;;;;;;;;19.74;44.33;92633.63;10479421;28;2608;-59
2023/11/05 00:56:46;;;;;;;;;;;;;;;19.71;44.46;92638.81;10462241;28;2602;-58
2023/11/05 01:01:47;;;;;;;;;;;;;;;19.69;44.44;92633.91;10480580;28;2541;-59
2023/11/05 01:06:47;;;;;;;;;;;;;;;19.68;44.23;92602.72;10483465;28;5369;-59
2023/11/05 01:11:47;;;;;;;;;;;;;;;19.65;44.41;92598.13;10463669;28;2642;-59
2023/11/05 01:16:48;;;;;;;;;;;;;;;19.63;44.50;92614.25;10484084;28;2542;-59
2023/11/05 01:21:48;;;;;;;;;;;;;;;19.62;44.21;92630.34;10474598;28;2667;-59
2023/11/05 01:26:48;;;;;;;;;;;;;;;19.59;44.22;92647.56;10474862;28;2647;-58
2023/11/05 01:31:49;;;;;;;;;;;;;;;19.60;44.15;92640.44;10456118;28;2740;-58
2023/11/05 01:36:49;;;;;;;;;;;;;;;19.58;44.13;92642.66;10450598;28;2665;-56
2023/11/05 01:41:49;;;;;;;;;;;;;;;19.57;44.37;92635.84;10478222;28;2608;-58
2023/11/05 01:46:49;;;;;;;;;;;;;;;19.54;44.25;92624.16;10473649;28;2620;-58
2023/11/05 01:51:50;;;;;;;;;;;;;;;19.53;44.16;92611.38;10461727;28;2720;-58
2023/11/05 01:56:50;;;;;;;;;;;;;;;19.52;44.21;92612.47;10459469;28;2573;-58
2023/11/05 02:01:51;;;;;;;;;;;;;;;19.51;44.08;92609.09;10440498;28;2574;-59
2023/11/05 02:06:51;;;;;;;;;;;;;;;19.49;44.05;92606.06;10472216;28;5521;-58
2023/11/05 02:11:51;;;;;;;;;;;;;;;19.48;44.19;92602.66;10466504;28;2650;-58
2023/11/05 02:16:52;;;;;;;;;;;;;;;19.47;44.14;92598.50;10460191;28;2526;-58
2023/11/05 02:21:52;;;;;;;;;;;;;;;19.45;44.05;92576.31;10468756;28;2628;-59
2023/11/05 02:27:01;;;;;;;;;;;;;;;19.43;44.09;92568.75;10453272;28;2679;-58
2023/11/05 02:32:03;;;;;;;;;;;;;;;19.42;44.09;92558.59;10473566;28;2585;-60
2023/11/05 02:37:04;;;;;;;;;;;;;;;19.41;44.32;92551.84;10454418;28;2688;-60
2023/11/05 02:42:04;;;;;;;;;;;;;;;19.40;44.11;92548.44;10475306;28;2630;-59
2023/11/05 02:47:04;;;;;;;;;;;;;;;19.39;43.90;92554.78;10471930;28;3207;-59
2023/11/05 02:52:05;;;;;;;;;;;;;;;19.38;44.06;92537.53;10479590;28;2603;-59
2023/11/05 02:57:06;;;;;;;;;;;;;;;19.37;44.04;92538.59;10467524;28;2572;-60
2023/11/05 03:02:06;;;;;;;;;;;;;;;19.35;43.98;92527.69;10466114;28;5643;-59
2023/11/05 03:07:07;;;;;;;;;;;;;;;19.34;44.01;92518.28;10471192;28;2676;-59
2023/11/05 03:12:07;;;;;;;;;;;;;;;19.33;44.25;92503.63;10467337;28;2553;-59
2023/11/05 03:17:07;;;;;;;;;;;;;;;19.32;44.17;92493.44;10457756;28;2634;-60
2023/11/05 03:22:07;;;;;;;;;;;;;;;19.31;43.96;92487.44;10478013;28;2620;-59
2023/11/05 03:27:08;;;;;;;;;;;;;;;19.31;43.89;92484.03;10466088;28;2541;-59
2023/11/05 03:32:08;;;;;;;;;;;;;;;19.29;44.02;92488.88;10471726;28;2611;-60
2023/11/05 03:37:08;;;;;;;;;;;;;;;19.28;44.00;92487.34;10454419;28;2708;-60
2023/11/05 03:42:09;;;;;;;;;;;;;;;19.28;44.04;92485.50;10466221;28;2557;-60
2023/11/05 03:47:09;;;;;;;;;;;;;;;19.26;44.12;92485.09;10469805;28;2685;-59
2023/11/05 03:52:11;;;;;;;;;;;;;;;19.25;44.18;92472.28;10479194;28;2663;-60
2023/11/05 03:57:11;;;;;;;;;;;;;;;19.24;44.17;92474.16;10473068;28;2557;-60
2023/11/05 04:02:11;;;;;;;;;;;;;;;19.23;43.92;92462.13;10473980;28;5158;-59
2023/11/05 04:07:11;;;;;;;;;;;;;;;19.22;43.90;92449.34;10461360;28;2592;-60
2023/11/05 04:12:12;;;;;;;;;;;;;;;19.21;43.93;92435.44;10477527;28;2566;-60
2023/11/05 04:17:12;;;;;;;;;;;;;;;19.20;43.81;92428.69;10478001;28;2774;-59
2023/11/05 04:22:12;;;;;;;;;;;;;;;19.19;44.03;92434.25;10479690;28;2652;-59
2023/11/05 04:27:13;;;;;;;;;;;;;;;19.18;43.64;92428.28;10486428;28;2525;-60
2023/11/05 04:32:14;;;;;;;;;;;;;;;19.16;44.00;92409.47;10481890;28;2651;-60
2023/11/05 04:37:14;;;;;;;;;;;;;;;19.15;44.01;92415.81;10471393;28;7192;-60
2023/11/05 04:42:14;;;;;;;;;;;;;;;19.15;43.76;92401.91;10479398;28;5384;-60
2023/11/05 04:47:14;;;;;;;;;;;;;;;19.13;43.81;92396.25;10483913;28;5471;-59
2023/11/05 04:52:15;;;;;;;;;;;;;;;19.13;43.90;92389.16;10483505;28;5332;-60
2023/11/05 04:57:15;;;;;;;;;;;;;;;19.12;43.79;92385.00;10506093;28;2705;-60
2023/11/05 05:02:15;;;;;;;;;;;;;;;19.11;43.75;92386.09;10482439;28;2702;-60
2023/11/05 05:07:15;;;;;;;;;;;;;;;19.09;43.93;92372.56;10479231;28;2623;-59
2023/11/05 05:12:18;;;;;;;;;;;;;;;19.11;44.00;92375.59;10483624;28;5228;-60
2023/11/05 05:17:18;;;;;;;;;;;;;;;19.17;43.98;92374.22;10467601;28;2672;-59
2023/11/05 05:22:20;;;;;;;;;;;;;;;19.25;43.84;92375.88;10454169;28;2706;-60
2023/11/05 05:27:21;;;;;;;;;;;;;;;19.32;43.72;92377.91;10474396;28;2600;-59
2023/11/05 05:32:21;;;;;;;;;;;;;;;19.37;44.00;92378.41;10476572;28;2579;-59
2023/11/05 05:37:22;;;;;;;;;;;;;;;19.45;43.42;92390.56;10474045;28;2640;-60
2023/11/05 05:42:22;;;;;;;;;;;;;;;19.51;43.12;92398.16;10472216;28;5035;-60
2023/11/05 05:47:22;;;;;;;;;;;;;;;19.58;43.10;92393.81;10474513;28;2521;-60
2023/11/05 05:52:23;;;;;;;;;;;;;;;19.64;43.09;92386.41;10479110;28;2593;-59
2023/11/05 05:57:23;;;;;;;;;;;;;;;19.67;43.28;92388.34;10480070;28;2605;-59
2023/11/05 06:02:24;;;;;;;;;;;;;;;19.72;42.97;92385.44;10474944;28;2555;-59
2023/11/05 06:07:26;;;;;;;;;;;;;;;19.75;43.07;92401.25;10472235;28;2548;-60
2023/11/05 06:12:26;;;;;;;;;;;;;;;19.80;43.14;92401.00;10470916;28;2586;-59
2023/11/05 06:17:26;;;;;;;;;;;;;;;19.85;42.71;92392.03;10475478;28;2567;-60
2023/11/05 06:22:26;;;;;;;;;;;;;;;19.90;42.26;92399.66;10473459;28;2561;-60
2023/11/05 06:27:27;;;;;;;;;;;;;;;19.92;42.40;92408.72;10477010;28;2668;-60
2023/11/05 06:32:27;;;;;;;;;;;;;;;19.95;42.24;92392.22;10473549;28;2604;-60
2023/11/05 06:37:29;;;;;;;;;;;;;;;19.96;42.49;92387.75;10468885;28;2573;-60
2023/11/05 06:42:30;;;;;;;;;;;;;;;20.02;42.64;92391.59;10471561;28;5263;-59
2023/11/05 06:47:30;;;;;;;;;;;;;;;20.03;42.83;92393.13;10472298;28;2979;-59
2023/11/05 06:52:30;;;;;;;;;;;;;;;20.06;42.43;92408.19;10481815;28;2628;-59
2023/11/05 06:57:32;;;;;;;;;;;;;;;20.08;42.56;92427.00;10457890;28;2564;-59
2023/11/05 07:02:34;;;;;;;;;;;;;;;20.11;41.83;92445.47;10455940;28;2593;-60
2023/11/05 07:07:34;;;;;;;;;;;;;;;20.12;42.34;92467.28;10456999;28;2628;-60
2023/11/05 07:12:35;;;;;;;;;;;;;;;20.15;41.97;92463.97;10464783;28;2565;-59
2023/11/05 07:17:38;;;;;;;;;;;;;;;20.18;41.87;92474.53;10486285;28;2598;-60
2023/11/05 07:22:38;;;;;;;;;;;;;;;20.18;41.65;92474.53;10480593;28;2642;-60
2023/11/05 07:27:38;;;;;;;;;;;;;;;20.18;42.12;92482.41;10490745;28;2643;-60
2023/11/05 07:32:39;;;;;;;;;;;;;;;20.21;42.08;92494.16;10475928;28;2658;-60
2023/11/05 07:37:39;;;;;;;;;;;;;;;20.22;41.63;92488.53;10473973;28;2685;-60
2023/11/05 07:42:41;;;;;;;;;;;;;;;20.25;41.98;92518.63;10469360;28;4805;-60
2023/11/05 07:47:41;;;;;;;;;;;;;;;20.25;42.01;92522.03;10479142;28;2695;-59
2023/11/05 07:52:42;;;;;;;;;;;;;;;20.28;41.96;92523.97;10473059;28;2693;-60
2023/11/05 07:57:43;;;;;;;;;;;;;;;20.29;42.10;92516.84;10474534;28;2669;-60
2023/11/05 08:02:43;;;;;;;;;;;;;;;20.33;41.63;92528.19;10478499;28;2737;-60
2023/11/05 08:07:44;;;;;;;;;;;;;;;20.35;41.84;92525.19;10473742;28;2566;-60
2023/11/05 08:12:44;;;;;;;;;;;;;;;20.35;42.27;92536.47;10470462;28;2616;-60
2023/11/05 08:17:45;;;;;;;;;;;;;;;20.35;42.44;92557.53;10483944;28;2608;-60
2023/11/05 08:22:46;;;;;;;;;;;;;;;20.37;42.07;92568.47;10470606;28;2673;-60
2023/11/05 08:27:46;;;;;;;;;;;;;;;20.35;42.77;92573.31;10472171;28;2650;-60
2023/11/05 08:32:46;;;;;;;;;;;;;;;20.37;42.17;92570.31;10472065;28;2644;-59
2023/11/05 08:37:47;;;;;;;;;;;;;;;20.34;43.18;92563.13;10463327;28;2583;-60
2023/11/05 08:42:47;;;;;;;;;;;;;;;20.34;43.15;92547.34;10466659;28;4923;-59
2023/11/05 08:47:47;;;;;;;;;;;;;;;20.36;42.86;92543.25;10471471;28;2544;-60
2023/11/05 08:52:48;;;;;;;;;;;;;;;20.32;43.86;92552.94;10473499;28;2734;-59
2023/11/05 08:57:48;;;;;;;;;;;;;;;20.33;44.00;92554.47;10476128;28;2640;-60
2023/11/05 09:02:48;;;;;;;;;;;;;;;20.33;44.75;92548.44;10482052;28;2614;-59
2023/11/05 09:07:50;;;;;;;;;;;;;;;20.30;44.96;92559.69;10474916;28;2695;-59
2023/11/05 09:12:50;;;;;;;;;;;;;;;20.31;45.16;92564.59;10474906;28;2960;-60
2023/11/05 09:17:51;;;;;;;;;;;;;;;20.30;45.31;92573.56;10479821;28;2564;-59
2023/11/05 09:22:51;;;;;;;;;;;;;;;20.26;44.83;92606.94;10445659;28;2602;-59
2023/11/05 09:27:51;;;;;;;;;;;;;;;20.23;44.51;92610.28;10460055;28;2607;-59
2023/11/05 09:32:51;;;;;;;;;;;;;;;20.21;45.15;92623.78;10453678;28;2703;-58
2023/11/05 09:37:52;;;;;;;;;;;;;;;20.18;45.74;92642.84;10471004;28;2618;-59
2023/11/05 09:43:01;;;;;;;;;;;;;;;20.18;45.06;92657.84;10478332;28;4999;-60
2023/11/05 09:48:05;;;;;;;;;;;;;;;20.14;44.75;92675.41;10460726;28;2649;-59
2023/11/05 09:53:06;;;;;;;;;;;;;;;20.16;45.76;92697.66;10474310;28;2632;-58
2023/11/05 09:58:09;;;;;;;;;;;;;;;20.18;45.45;92699.94;10476726;28;2587;-59
2023/11/05 10:03:10;;;;;;;;;;;;;;;20.14;45.68;92709.59;10469470;28;2683;-59
2023/11/05 10:08:10;;;;;;;;;;;;;;;20.10;44.71;92742.94;10474598;28;2536;-59
2023/11/05 10:13:11;;;;;;;;;;;;;;;20.08;44.60;92747.78;10456518;28;2546;-59
2023/11/05 10:18:17;;;;;;;;;;;;;;;20.03;44.51;92782.25;10475074;28;2635;-59
2023/11/05 10:23:17;;;;;;;;;;;;;;;20.03;44.42;92795.41;10474644;28;2624;-59
2023/11/05 10:28:20;;;;;;;;;;;;;;;20.01;44.72;92821.28;10477402;28;2522;-59
2023/11/05 10:33:21;;;;;;;;;;;;;;;19.96;44.88;92829.41;10468679;28;2739;-60
2023/11/05 10:38:23;;;;;;;;;;;;;;;19.94;44.40;92802.69;10468165;28;2556;-60
2023/11/05 10:43:25;;;;;;;;;;;;;;;19.91;44.01;92838.28;10472858;28;4811;-59
2023/11/05 10:48:28;;;;;;;;;;;;;;;19.93;44.77;92828.19;10458456;28;2590;-59
2023/11/05 10:53:28;;;;;;;;;;;;;;;19.96;45.22;92859.09;10467765;28;2553;-60
2023/11/05 10:58:41;;;;;;;;;;;;;;;19.99;47.03;92849.75;10474123;28;2624;-60
2023/11/05 11:03:41;;;;;;;;;;;;;;;20.01;48.01;92865.97;10469628;28;2579;-60
2023/11/05 11:09:18;;;;;;;;;;;;;;;20.02;47.36;92841.97;10473711;28;2552;-60
2023/11/05 11:14:18;;;;;;;;;;;;;;;20.03;48.01;92879.53;10423119;28;2579;-60
2023/11/05 11:19:18;;;;;;;;;;;;;;;20.02;47.90;92843.81;10463941;28;2717;-61
2023/11/05 11:24:33;;;;;;;;;;;;;;;20.01;48.20;92864.06;10453073;28;2603;-59
2023/11/05 11:29:41;;;;;;;;;;;;;;;20.02;48.14;92863.00;10468928;28;2617;-59
2023/11/05 11:34:41;;;;;;;;;;;;;;;20.01;48.87;92873.84;10450980;28;2548;-59
2023/11/05 11:39:41;;;;;;;;;;;;;;;20.02;48.69;92872.72;10477284;28;2605;-59
2023/11/05 11:44:42;;;;;;;;;;;;;;;20.00;48.78;92861.78;10433921;28;4721;-61
2023/11/05 11:49:44;;;;;;;;;;;;;;;19.96;47.34;92887.22;10472421;28;2589;-58
2023/11/05 11:54:45;;;;;;;;;;;;;;;19.90;47.09;92894.63;10472537;28;2630;-59
2023/11/05 11:59:47;;;;;;;;;;;;;;;19.87;47.31;92905.00;10459836;28;2620;-59
2023/11/05 12:04:47;;;;;;;;;;;;;;;19.86;45.89;92937.69;10467861;28;2559;-60
2023/11/05 12:09:47;;;;;;;;;;;;;;;19.78;46.96;92949.09;10469900;28;2541;-59
2023/11/05 12:14:52;;;;;;;;;;;;;;;19.76;46.53;92919.75;10443112;28;2648;-59
2023/11/05 12:19:52;;;;;;;;;;;;;;;19.77;46.84;92916.03;10467032;28;2544;-60
2023/11/05 12:24:52;;;;;;;;;;;;;;;19.72;47.12;92922.28;10478881;28;2586;-60
2023/11/05 12:29:53;;;;;;;;;;;;;;;19.72;47.19;92929.41;10477918;28;2633;-59
2023/11/05 12:34:53;;;;;;;;;;;;;;;19.71;47.10;92927.88;10477677;28;2614;-59
2023/11/05 12:39:56;;;;;;;;;;;;;;;19.69;47.38;92945.84;10459267;28;2562;-59
2023/11/05 12:44:56;;;;;;;;;;;;;;;19.72;47.07;92935.41;10472118;28;4828;-59
2023/11/05 12:49:56;;;;;;;;;;;;;;;19.70;46.95;92957.91;10483350;28;2643;-59
2023/11/05 12:54:57;;;;;;;;;;;;;;;19.72;47.01;92956.44;10456647;28;2558;-60
2023/11/05 12:59:57;;;;;;;;;;;;;;;19.74;46.84;92956.13;10482524;28;2615;-59
2023/11/05 13:04:57;;;;;;;;;;;;;;;19.81;46.80;92956.31;10475890;28;2684;-60
2023/11/05 13:10:00;;;;;;;;;;;;;;;19.87;45.34;92965.47;10470757;28;2557;-59
2023/11/05 13:15:00;;;;;;;;;;;;;;;19.96;44.96;92979.25;10472747;28;2615;-59
2023/11/05 13:20:01;;;;;;;;;;;;;;;20.04;43.96;92955.44;10479784;28;2600;-60
2023/11/05 13:25:02;;;;;;;;;;;;;;;20.13;43.50;92968.44;10476344;28;2599;-60
2023/11/05 13:30:03;;;;;;;;;;;;;;;20.15;43.71;92982.03;10482591;28;2563;-59
2023/11/05 13:35:05;;;;;;;;;;;;;;;20.13;44.22;93003.38;10478850;28;2556;-59
2023/11/05 13:40:07;;;;;;;;;;;;;;;20.14;44.27;92994.41;10470175;28;2624;-59
2023/11/05 13:45:09;;;;;;;;;;;;;;;20.16;44.37;93009.84;10480174;28;4796;-59
2023/11/05 13:50:11;;;;;;;;;;;;;;;20.12;44.61;93003.72;10480653;28;1789;-58
2023/11/05 13:55:11;;;;;;;;;;;;;;;20.06;44.86;93028.72;10478206;28;1479;-59
2023/11/05 14:00:13;;;;;;;;;;;;;;;19.97;45.40;93036.00;10466644;28;1638;-58
2023/11/05 14:05:14;;;;;;;;;;;;;;;19.93;44.09;93050.91;10476580;28;1996;-59
2023/11/05 14:10:17;;;;;;;;;;;;;;;19.87;44.84;93060.13;10477078;28;1667;-62
2023/11/05 14:15:19;;;;;;;;;;;;;;;19.82;44.41;93070.88;10480885;28;1461;-59
2023/11/05 14:20:19;;;;;;;;;;;;;;;19.75;43.80;93081.94;10481516;28;1496;-58
2023/11/05 14:25:19;;;;;;;;;;;;;;;19.72;45.07;93087.09;10462317;28;1909;-58
2023/11/05 14:30:20;;;;;;;;;;;;;;;19.69;45.09;93104.31;10469908;28;1382;-59
2023/11/05 14:35:21;;;;;;;;;;;;;;;19.66;45.09;93107.56;10481445;28;2248;-59
2023/11/05 14:40:24;;;;;;;;;;;;;;;19.65;45.07;93110.53;10477312;28;2525;-58
2023/11/05 14:45:25;;;;;;;;;;;;;;;19.69;43.87;93108.78;10469535;28;4828;-58
2023/11/05 14:50:29;;;;;;;;;;;;;;;19.70;43.49;93155.75;10469178;28;2579;-56
2023/11/05 14:55:30;;;;;;;;;;;;;;;19.76;43.13;93182.59;10454857;28;2768;-58
2023/11/05 15:00:31;;;;;;;;;;;;;;;19.81;44.23;93190.25;10471835;28;1926;-57
2023/11/05 15:05:31;;;;;;;;;;;;;;;19.87;43.78;93196.81;10473743;28;2021;-58
2023/11/05 15:10:32;;;;;;;;;;;;;;;19.92;43.79;93218.41;10463850;28;1476;-58
2023/11/05 15:15:32;;;;;;;;;;;;;;;19.96;43.74;93223.78;10455494;28;2010;-58
2023/11/05 15:20:32;;;;;;;;;;;;;;;20.01;43.35;93247.97;10476764;28;2388;-57
2023/11/05 15:25:33;;;;;;;;;;;;;;;20.07;43.32;93253.78;10472666;28;1914;-58
2023/11/05 15:30:33;;;;;;;;;;;;;;;20.10;42.99;93240.75;10474263;28;1354;-58
2023/11/05 15:35:34;;;;;;;;;;;;;;;20.12;43.27;93232.53;10474476;28;1578;-59
2023/11/05 15:40:34;;;;;;;;;;;;;;;20.16;43.03;93249.16;10458311;28;1439;-58
2023/11/05 15:45:34;;;;;;;;;;;;;;;20.18;42.65;93275.91;10476481;28;5418;-58
2023/11/05 15:50:35;;;;;;;;;;;;;;;20.21;42.65;93275.28;10468557;28;1930;-58
2023/11/05 15:55:35;;;;;;;;;;;;;;;20.22;42.28;93274.19;10472282;28;1791;-58
2023/11/05 16:00:35;;;;;;;;;;;;;;;20.25;42.13;93284.06;10474299;28;1530;-56
2023/11/05 16:05:35;;;;;;;;;;;;;;;20.27;42.22;93290.53;10449461;28;1973;-59
2023/11/05 16:10:36;;;;;;;;;;;;;;;20.30;42.43;93312.75;10485651;28;1457;-58
2023/11/05 16:15:36;;;;;;;;;;;;;;;20.35;42.23;93299.41;10484158;28;1446;-58
2023/11/05 16:20:37;;;;;;;;;;;;;;;20.40;41.94;93298.41;10480285;28;1536;-59
2023/11/05 16:25:37;;;;;;;;;;;;;;;20.45;41.49;93320.00;10473639;28;1969;-58
2023/11/05 16:30:37;;;;;;;;;;;;;;;20.52;41.49;93332.59;10476421;28;1421;-59
2023/11/05 16:35:39;;;;;;;;;;;;;;;20.58;41.18;93347.84;10485297;28;1400;-53
2023/11/05 16:40:40;;;;;;;;;;;;;;;20.63;41.36;93363.41;10490118;28;1456;-56
2023/11/05 16:45:40;;;;;;;;;;;;;;;20.65;41.37;93368.34;10478158;28;4924;-57
2023/11/05 16:50:40;;;;;;;;;;;;;;;20.71;41.40;93383.56;10489302;28;1508;-56
2023/11/05 16:55:41;;;;;;;;;;;;;;;20.76;40.92;93388.63;10486417;28;1864;-56
2023/11/05 17:00:42;;;;;;;;;;;;;;;20.80;41.16;93399.25;10470037;28;2624;-58
2023/11/05 17:05:45;;;;;;;;;;;;;;;20.80;40.91;93422.94;10475293;28;2561;-56
2023/11/05 17:10:45;;;;;;;;;;;;;;;20.81;41.26;93453.47;10486275;28;2548;-56
2023/11/05 17:15:46;;;;;;;;;;;;;;;20.87;40.72;93486.38;10475518;28;2616;-53
2023/11/05 17:20:46;;;;;;;;;;;;;;;20.91;40.91;93508.31;10480835;28;2560;-57
2023/11/05 17:25:47;;;;;;;;;;;;;;;20.94;40.35;93537.41;10482249;28;1969;-56
2023/11/05 17:30:47;;;;;;;;;;;;;;;20.96;40.69;93563.41;10461984;28;1480;-57
2023/11/05 17:35:47;;;;;;;;;;;;;;;20.97;40.30;93571.00;10483111;28;2025;-55
2023/11/05 17:40:47;;;;;;;;;;;;;;;20.98;40.78;93584.91;10483097;28;1444;-58
2023/11/05 17:45:48;;;;;;;;;;;;;;;21.03;40.20;93598.69;10484567;28;4848;-56
2023/11/05 17:50:48;;;;;;;;;;;;;;;21.05;39.91;93620.19;10483434;28;1441;-56
2023/11/05 17:55:48;;;;;;;;;;;;;;;21.08;40.19;93629.31;10467568;28;2304;-56
2023/11/05 18:00:49;;;;;;;;;;;;;;;21.23;40.24;93651.59;10477225;28;1588;-56
2023/11/05 18:05:49;;;;;;;;;;;;;;;21.32;39.78;93660.97;10482101;28;1910;-56
2023/11/05 18:10:50;;;;;;;;;;;;;;;21.40;39.66;93667.22;10475968;28;1674;-55
2023/11/05 18:15:50;;;;;;;;;;;;;;;21.42;38.95;93686.09;10477603;28;1986;-57
2023/11/05 18:20:53;;;;;;;;;;;;;;;21.54;38.94;93709.84;10466407;28;1538;-54
2023/11/05 18:25:53;;;;;;;;;;;;;;;21.54;39.03;93705.34;10474013;28;1909;-52
2023/11/05 18:30:54;;;;;;;;;;;;;;;21.63;38.64;93731.63;10478996;28;1479;-56
2023/11/05 18:35:54;;;;;;;;;;;;;;;21.67;38.29;93753.59;10461846;28;1427;-56
2023/11/05 18:40:54;;;;;;;;;;;;;;;21.69;38.14;93768.00;10481339;28;1464;-55
2023/11/05 18:45:56;;;;;;;;;;;;;;;21.71;38.54;93771.06;10479366;28;5350;-56
2023/11/05 18:50:57;;;;;;;;;;;;;;;21.74;38.72;93788.88;10469090;28;2383;-58
2023/11/05 18:55:57;;;;;;;;;;;;;;;21.77;37.74;93811.97;10480706;28;1483;-57
2023/11/05 19:00:57;;;;;;;;;;;;;;;21.76;38.38;93825.47;10479585;28;1468;-57
2023/11/05 19:05:57;;;;;;;;;;;;;;;21.77;38.42;93848.09;10483909;28;1909;-57
2023/11/05 19:11:00;;;;;;;;;;;;;;;21.68;38.28;93882.47;10483559;28;1722;-57
2023/11/05 19:16:00;;;;;;;;;;;;;;;21.62;38.21;93882.97;10486287;28;1448;-56
2023/11/05 19:21:00;;;;;;;;;;;;;;;21.50;38.39;93918.00;10482596;28;1529;-57
2023/11/05 19:26:01;;;;;;;;;;;;;;;21.44;38.46;93921.13;10466281;28;1902;-58
2023/11/05 19:31:01;;;;;;;;;;;;;;;21.37;40.06;93939.34;10485212;28;1463;-56
2023/11/05 19:36:01;;;;;;;;;;;;;;;21.33;39.77;93955.00;10479861;28;1441;-57
2023/11/05 19:41:02;;;;;;;;;;;;;;;21.28;39.50;93973.66;10474587;28;1499;-55
2023/11/05 19:46:02;;;;;;;;;;;;;;;21.19;40.49;93991.38;10457624;28;4856;-56
2023/11/05 19:51:03;;;;;;;;;;;;;;;21.16;40.07;94001.78;10476266;28;1564;-57
2023/11/05 19:56:03;;;;;;;;;;;;;;;21.11;40.19;94023.03;10483430;28;1869;-56
2023/11/05 20:01:04;;;;;;;;;;;;;;;21.04;39.67;94026.94;10477626;28;1471;-57
2023/11/05 20:06:04;;;;;;;;;;;;;;;21.01;39.67;94032.84;10475317;28;2461;-55
2023/11/05 20:11:04;;;;;;;;;;;;;;;20.94;41.05;94045.72;10474327;28;2611;-56
2023/11/05 20:16:05;;;;;;;;;;;;;;;20.91;40.66;94062.16;10482838;28;2513;-57
2023/11/05 20:21:05;;;;;;;;;;;;;;;20.89;41.10;94064.34;10480783;28;2580;-56
2023/11/05 20:26:05;;;;;;;;;;;;;;;20.87;40.57;94078.91;10470665;28;2548;-55
2023/11/05 20:31:06;;;;;;;;;;;;;;;20.83;40.26;94073.50;10473166;28;2549;-56
2023/11/05 20:36:06;;;;;;;;;;;;;;;20.80;41.36;94068.84;10475122;28;2564;-57
2023/11/05 20:41:06;;;;;;;;;;;;;;;20.80;40.37;94083.88;10471671;28;3055;-55
2023/11/05 20:46:07;;;;;;;;;;;;;;;20.78;41.15;94084.19;10474099;28;2638;-55
2023/11/05 20:51:14;;;;;;;;;;;;;;;20.75;41.41;94079.53;10458024;28;2621;-56
2023/11/05 20:56:15;;;;;;;;;;;;;;;20.72;42.95;94092.56;10473643;28;2648;-57
2023/11/05 21:01:16;;;;;;;;;;;;;;;20.69;42.96;94098.47;10482061;28;2730;-57
2023/11/05 21:06:16;;;;;;;;;;;;;;;20.63;43.15;94103.13;10461040;28;2664;-55
2023/11/05 21:11:17;;;;;;;;;;;;;;;20.62;44.27;94108.69;10457895;28;2624;-56
2023/11/05 21:16:17;;;;;;;;;;;;;;;20.59;44.21;94125.88;10474200;28;2602;-56
2023/11/05 21:21:17;;;;;;;;;;;;;;;20.58;44.23;94139.38;10478419;28;2549;-55
2023/11/05 21:26:18;;;;;;;;;;;;;;;20.54;44.46;94146.34;10478087;28;2592;-55
2023/11/05 21:31:18;;;;;;;;;;;;;;;20.54;43.88;94156.88;10478704;28;2627;-55
2023/11/05 21:36:18;;;;;;;;;;;;;;;20.50;44.62;94169.88;10478477;28;2586;-54
2023/11/05 21:41:19;;;;;;;;;;;;;;;20.43;44.47;94181.94;10474264;28;2611;-55
2023/11/05 21:46:19;;;;;;;;;;;;;;;20.40;44.69;94196.53;10474329;28;2705;-54
2023/11/05 21:51:20;;;;;;;;;;;;;;;20.36;43.72;94194.81;10481541;28;2569;-56
2023/11/05 21:56:20;;;;;;;;;;;;;;;20.32;43.51;94199.91;10475172;28;2747;-54
2023/11/05 22:01:21;;;;;;;;;;;;;;;20.31;43.44;94202.84;10474420;28;2644;-56
2023/11/05 22:06:21;;;;;;;;;;;;;;;20.28;42.77;94218.16;10476338;28;2659;-55
2023/11/05 22:11:21;;;;;;;;;;;;;;;20.26;43.14;94222.19;10461599;28;2559;-56
2023/11/05 22:16:21;;;;;;;;;;;;;;;20.25;43.27;94225.91;10474912;28;2610;-54
2023/11/05 22:21:22;;;;;;;;;;;;;;;20.20;43.80;94231.31;10477584;28;2610;-54
2023/11/05 22:26:22;;;;;;;;;;;;;;;20.17;43.88;94230.03;10478546;28;2599;-55
2023/11/05 22:31:22;;;;;;;;;;;;;;;20.16;43.45;94233.75;10481454;28;2589;-54
2023/11/05 22:36:23;;;;;;;;;;;;;;;20.14;43.44;94240.38;10475105;28;2628;-55
2023/11/05 22:41:23;;;;;;;;;;;;;;;20.11;43.34;94252.28;10478939;28;2620;-56
2023/11/05 22:46:24;;;;;;;;;;;;;;;20.08;43.00;94263.44;10476437;28;4852;-55
2023/11/05 22:51:25;;;;;;;;;;;;;;;20.06;42.90;94272.72;10471607;28;2613;-56
2023/11/05 22:56:25;;;;;;;;;;;;;;;20.04;42.75;94273.03;10473841;28;2664;-55
2023/11/05 23:01:25;;;;;;;;;;;;;;;19.99;43.01;94282.91;10464057;28;2544;-53
2023/11/05 23:06:26;;;;;;;;;;;;;;;19.98;42.98;94290.03;10472655;28;2734;-53
2023/11/05 23:11:26;;;;;;;;;;;;;;;19.96;43.05;94296.66;10488250;28;2611;-56
2023/11/05 23:16:26;;;;;;;;;;;;;;;19.93;42.76;94302.50;10471983;28;2618;-52
2023/11/05 23:21:26;;;;;;;;;;;;;;;19.90;43.00;94311.03;10465569;28;2628;-55
2023/11/05 23:26:27;;;;;;;;;;;;;;;19.88;42.79;94316.59;10470711;28;2545;-54
2023/11/05 23:31:27;;;;;;;;;;;;;;;19.85;43.02;94317.19;10479993;28;2685;-54
2023/11/05 23:36:27;;;;;;;;;;;;;;;19.85;42.96;94326.94;10479766;28;2651;-55
2023/11/05 23:41:27;;;;;;;;;;;;;;;19.82;43.04;94323.06;10478119;28;2580;-56
2023/11/05 23:46:28;;;;;;;;;;;;;;;19.80;43.06;94327.06;10474590;28;4916;-55
2023/11/05 23:51:28;;;;;;;;;;;;;;;19.77;42.85;94332.91;10477516;28;2606;-56
2023/11/05 23:56:28;;;;;;;;;;;;;;;19.77;42.92;94338.19;10475354;28;2577;-54
